Time;durP1;ratioP1;P1;durP2;ratioP2;P2;SDS_P1;SDS_P2;PMS_P1;PMS_P2;Temp;Humidity;BMP_temperature;BMP_pressure;BME280_temperature;BME280_humidity;BME280_pressure;Samples;Min_cycle;Max_cycle;Signal;HPM_P1;HPM_P2
2022/02/04 00:08:10;;;;;;;27.20;19.73;;;8.90;85.80;;;;;;5068745;28;20048;-78
2022/02/04 00:24:04;;;;;;;32.95;23.77;;;8.70;86.00;;;;;;5070450;28;20033;-79
2022/02/04 00:26:34;;;;;;;29.02;21.27;;;8.70;86.20;;;;;;5064746;28;20123;-80
2022/02/04 00:29:13;;;;;;;27.15;19.77;;;8.70;86.20;;;;;;5059703;28;20016;-79
2022/02/04 00:34:38;;;;;;;30.42;21.02;;;8.80;86.10;;;;;;5067306;28;20036;-79
2022/02/04 00:39:56;;;;;;;30.95;23.13;;;8.80;86.10;;;;;;5065591;28;20029;-80
2022/02/04 00:42:22;;;;;;;26.98;19.90;;;8.80;86.10;;;;;;5070336;28;20028;-79
2022/02/04 00:44:49;;;;;;;29.65;20.92;;;8.80;86.10;;;;;;5063994;28;20394;-78
2022/02/04 00:47:19;;;;;;;23.90;17.92;;;8.80;86.00;;;;;;5068126;28;20059;-79
2022/02/04 00:54:47;;;;;;;23.00;16.73;;;8.80;85.90;;;;;;5060887;28;20625;-77
2022/02/04 01:06:29;;;;;;;20.38;15.13;;;8.90;85.90;;;;;;5064094;28;20131;-78
2022/02/04 01:27:27;;;;;;;24.80;18.25;;;8.90;85.60;;;;;;5063013;28;20036;-78
2022/02/04 01:30:05;;;;;;;25.15;18.08;;;8.90;85.60;;;;;;5054276;28;20036;-78
2022/02/04 01:32:31;;;;;;;32.72;24.33;;;9.00;85.60;;;;;;5064740;28;20029;-78
2022/02/04 01:34:57;;;;;;;23.15;17.38;;;8.90;85.60;;;;;;5066062;28;20097;-77
2022/02/04 01:37:22;;;;;;;27.13;19.95;;;8.90;85.60;;;;;;5065539;28;20850;-77
2022/02/04 01:39:49;;;;;;;25.55;18.50;;;8.90;85.60;;;;;;5060370;28;20028;-77
2022/02/04 01:42:14;;;;;;;25.30;18.15;;;8.90;85.60;;;;;;5064420;28;20037;-77
2022/02/04 01:44:40;;;;;;;29.60;21.42;;;8.90;85.60;;;;;;5068542;28;20086;-77
2022/02/04 01:47:06;;;;;;;23.20;17.20;;;8.90;85.50;;;;;;5062857;28;20070;-77
2022/02/04 01:49:34;;;;;;;29.35;20.40;;;8.90;86.10;;;;;;5072728;28;20025;-77
2022/02/04 01:51:59;;;;;;;25.90;19.15;;;8.90;85.50;;;;;;5066500;28;20472;-77
2022/02/04 01:54:25;;;;;;;24.42;17.70;;;8.90;85.50;;;;;;5059421;28;20028;-77
2022/02/04 01:56:51;;;;;;;22.08;15.95;;;8.90;85.50;;;;;;5067964;28;20468;-77
2022/02/04 01:59:16;;;;;;;24.33;17.95;;;8.90;85.50;;;;;;5058162;28;20021;-77
2022/02/04 02:01:42;;;;;;;31.73;23.98;;;8.90;85.50;;;;;;5067180;28;20028;-77
2022/02/04 02:04:11;;;;;;;24.75;18.17;;;8.90;85.40;;;;;;5069011;28;20059;-77
2022/02/04 02:06:42;;;;;;;21.95;15.73;;;8.80;85.50;;;;;;5051019;28;20048;-77
2022/02/04 02:09:07;;;;;;;19.17;14.55;;;8.80;85.50;;;;;;5065158;28;20032;-77
2022/02/04 02:11:33;;;;;;;23.67;18.20;;;8.90;85.50;;;;;;5068159;28;20443;-78
2022/02/04 02:13:59;;;;;;;23.08;17.05;;;8.90;85.50;;;;;;5068159;28;20016;-78
2022/02/04 02:16:59;;;;;;;16.15;12.07;;;8.90;85.50;;;;;;5064294;28;20029;-78
2022/02/04 02:48:56;;;;;;;22.38;17.50;;;8.90;85.50;;;;;;5056595;28;20036;-78
2022/02/04 02:59:21;;;;;;;18.45;12.13;;;8.90;85.50;;;;;;5068933;28;20025;-78
2022/02/04 03:01:49;;;;;;;18.42;14.00;;;8.80;85.40;;;;;;5062255;28;20024;-78
2022/02/04 03:04:17;;;;;;;16.17;12.30;;;8.90;85.40;;;;;;5072054;28;20028;-79
2022/02/04 03:06:44;;;;;;;16.02;12.00;;;8.90;85.40;;;;;;5065970;28;20111;-79
2022/02/04 03:09:11;;;;;;;18.67;14.35;;;8.90;85.40;;;;;;5061636;28;20041;-79
2022/02/04 03:11:36;;;;;;;16.33;11.85;;;8.90;85.40;;;;;;5069577;28;20112;-79
2022/02/04 03:14:03;;;;;;;14.95;10.27;;;8.90;85.30;;;;;;5061744;28;20111;-80
2022/02/04 03:16:29;;;;;;;14.38;11.02;;;8.90;85.30;;;;;;5064705;28;20029;-81
2022/02/04 03:18:57;;;;;;;15.65;11.05;;;8.90;85.30;;;;;;5065350;28;20526;-79
2022/02/04 03:21:30;;;;;;;18.52;13.18;;;9.00;85.30;;;;;;5067448;28;20037;-79
2022/02/04 03:24:01;;;;;;;15.60;10.57;;;9.00;85.20;;;;;;5063917;28;20025;-79
2022/02/04 03:26:34;;;;;;;16.52;11.70;;;9.00;85.20;;;;;;5055076;28;20063;-78
2022/02/04 03:28:59;;;;;;;15.02;11.10;;;9.00;85.10;;;;;;5053598;28;20085;-79
2022/02/04 03:31:29;;;;;;;14.30;10.20;;;8.90;85.00;;;;;;5071006;28;20045;-79
2022/02/04 03:33:55;;;;;;;12.95;9.68;;;9.00;85.00;;;;;;5069853;28;20024;-78
2022/02/04 03:36:20;;;;;;;13.68;10.38;;;8.90;85.00;;;;;;5062593;28;20040;-78
2022/02/04 03:38:46;;;;;;;12.18;8.65;;;9.00;85.00;;;;;;5069375;28;20036;-78
2022/02/04 03:41:13;;;;;;;12.27;9.35;;;9.00;85.00;;;;;;5070682;28;20040;-78
2022/02/04 03:43:39;;;;;;;20.30;14.55;;;9.00;84.90;;;;;;5068884;28;20024;-78
2022/02/04 03:46:05;;;;;;;13.63;9.85;;;9.00;84.90;;;;;;5054568;28;20024;-78
2022/02/04 03:48:31;;;;;;;16.83;11.68;;;9.00;84.90;;;;;;5068389;28;20021;-79
2022/02/04 03:50:57;;;;;;;11.80;8.68;;;8.90;84.80;;;;;;5069506;28;20140;-79
2022/02/04 03:53:23;;;;;;;13.40;9.77;;;9.00;84.80;;;;;;5062312;28;20432;-79
2022/02/04 03:55:48;;;;;;;12.13;9.15;;;9.00;85.40;;;;;;5066680;28;20082;-79
2022/02/04 03:58:14;;;;;;;13.68;9.38;;;9.00;84.70;;;;;;5065648;28;20138;-78
2022/02/04 04:00:40;;;;;;;16.77;11.13;;;9.00;84.70;;;;;;5063015;28;20021;-78
2022/02/04 04:03:05;;;;;;;14.00;10.60;;;9.00;84.60;;;;;;5071708;28;20024;-78
2022/02/04 04:05:32;;;;;;;12.50;9.00;;;9.00;84.60;;;;;;5070271;28;20021;-79
2022/02/04 04:07:58;;;;;;;11.30;8.65;;;9.00;84.60;;;;;;5070861;28;20032;-78
2022/02/04 04:10:26;;;;;;;10.95;8.13;;;9.00;84.60;;;;;;5070451;28;20150;-79
2022/02/04 04:12:56;;;;;;;12.48;9.55;;;9.00;84.60;;;;;;5070269;28;20032;-78
2022/02/04 04:15:22;;;;;;;13.13;8.70;;;9.00;84.50;;;;;;5068561;28;20035;-78
2022/02/04 04:17:48;;;;;;;14.27;10.50;;;9.00;84.50;;;;;;5061884;28;20025;-78
2022/02/04 04:20:19;;;;;;;15.20;11.43;;;9.00;84.40;;;;;;5057153;28;20552;-78
2022/02/04 04:22:45;;;;;;;10.15;7.80;;;8.90;84.30;;;;;;5060638;28;20029;-78
2022/02/04 04:25:13;;;;;;;12.35;8.40;;;8.90;84.40;;;;;;5069916;28;20581;-78
2022/02/04 04:27:42;;;;;;;10.77;7.50;;;8.90;84.40;;;;;;5069779;28;20025;-78
2022/02/04 04:30:09;;;;;;;9.95;7.53;;;9.00;84.40;;;;;;5067757;28;20033;-78
2022/02/04 04:32:35;;;;;;;11.30;7.90;;;9.00;84.40;;;;;;5069739;28;20101;-77
2022/02/04 04:35:01;;;;;;;10.45;7.47;;;9.00;84.30;;;;;;5063567;28;20475;-78
2022/02/04 04:37:27;;;;;;;14.20;9.90;;;9.00;84.30;;;;;;5066546;28;20032;-77
2022/02/04 04:40:08;;;;;;;10.40;7.60;;;9.00;84.10;;;;;;5065907;28;20087;-78
2022/02/04 04:45:34;;;;;;;14.10;10.40;;;9.00;84.20;;;;;;5068224;28;20778;-79
2022/02/04 05:31:16;;;;;;;11.00;7.38;;;8.90;83.90;;;;;;5068772;28;20124;-78
2022/02/04 05:33:42;;;;;;;7.25;5.53;;;8.90;83.80;;;;;;5069056;28;20112;-78
2022/02/04 05:36:09;;;;;;;8.98;5.97;;;8.90;83.70;;;;;;5064695;28;20472;-77
2022/02/04 05:38:35;;;;;;;10.27;6.53;;;8.90;83.60;;;;;;5066874;28;20025;-78
2022/02/04 05:41:01;;;;;;;8.38;6.50;;;8.90;83.60;;;;;;5059765;28;20016;-79
2022/02/04 05:43:30;;;;;;;10.18;7.15;;;8.90;84.20;;;;;;5060412;28;20067;-78
2022/02/04 05:46:03;;;;;;;9.85;6.93;;;8.90;83.60;;;;;;5055692;28;20720;-78
2022/02/04 05:48:32;;;;;;;8.15;6.50;;;8.90;83.50;;;;;;5063592;28;20418;-79
2022/02/04 05:53:53;;;;;;;7.55;5.43;;;8.90;83.40;;;;;;5068039;28;20043;-80
2022/02/04 05:59:01;;;;;;;8.95;5.80;;;8.90;83.40;;;;;;5061302;28;20119;-79
2022/02/04 06:01:41;;;;;;;8.18;6.22;;;8.90;83.50;;;;;;5064942;28;20032;-79
2022/02/04 06:07:08;;;;;;;8.25;5.78;;;8.90;83.50;;;;;;5054848;28;20116;-79
2022/02/04 06:12:41;;;;;;;7.88;5.22;;;8.90;83.40;;;;;;5068760;28;20385;-79
2022/02/04 06:23:34;;;;;;;7.72;5.82;;;8.90;83.30;;;;;;5061305;28;20110;-78
2022/02/04 06:26:00;;;;;;;8.77;6.18;;;8.90;83.20;;;;;;5067718;28;20491;-79
2022/02/04 06:28:28;;;;;;;7.38;5.00;;;8.90;83.20;;;;;;5060078;28;20032;-79
2022/02/04 06:30:53;;;;;;;8.65;5.50;;;8.80;83.10;;;;;;5058487;28;20032;-79
2022/02/04 06:33:19;;;;;;;7.22;4.90;;;8.80;83.20;;;;;;5059106;28;20037;-78
2022/02/04 06:35:44;;;;;;;6.40;4.90;;;8.80;83.20;;;;;;5065638;28;20074;-78
2022/02/04 06:38:10;;;;;;;8.63;4.97;;;8.90;83.20;;;;;;5061973;28;20016;-78
2022/02/04 06:40:36;;;;;;;7.03;4.72;;;8.90;83.10;;;;;;5058900;28;20024;-79
2022/02/04 06:43:01;;;;;;;6.07;4.25;;;8.90;83.00;;;;;;5060768;28;20044;-78
2022/02/04 06:45:27;;;;;;;5.32;4.03;;;8.90;83.00;;;;;;5066470;28;20060;-78
2022/02/04 06:47:52;;;;;;;6.30;4.43;;;8.90;83.00;;;;;;5062471;28;20125;-78
2022/02/04 06:50:18;;;;;;;7.13;4.45;;;8.90;82.90;;;;;;5064662;28;20052;-78
2022/02/04 06:52:44;;;;;;;5.20;3.90;;;8.90;82.80;;;;;;5050598;28;20017;-79
2022/02/04 06:55:11;;;;;;;6.32;4.60;;;8.90;82.80;;;;;;5059551;28;20062;-80
2022/02/04 06:57:36;;;;;;;6.07;4.03;;;8.90;82.80;;;;;;5069051;28;20020;-78
2022/02/04 07:00:04;;;;;;;5.57;4.13;;;9.00;82.90;;;;;;5063679;28;20029;-79
2022/02/04 07:02:30;;;;;;;5.90;4.25;;;9.00;82.80;;;;;;5064607;28;20016;-77
2022/02/04 07:04:55;;;;;;;5.50;3.83;;;8.90;82.80;;;;;;5054404;28;20074;-78
2022/02/04 07:07:21;;;;;;;8.18;5.32;;;9.00;82.90;;;;;;5068191;28;20570;-80
2022/02/04 07:12:20;;;;;;;5.60;4.10;;;8.90;82.70;;;;;;5061926;28;20380;-80
2022/02/04 07:19:48;;;;;;;7.07;4.45;;;9.00;82.60;;;;;;5066329;28;20068;-81
2022/02/04 07:22:15;;;;;;;8.15;5.05;;;9.00;82.60;;;;;;5065412;28;20009;-80
2022/02/04 07:24:40;;;;;;;7.07;5.05;;;9.00;82.70;;;;;;5061622;28;20498;-80
2022/02/04 07:27:06;;;;;;;6.50;5.28;;;9.00;82.70;;;;;;5070970;28;20104;-81
2022/02/04 07:29:33;;;;;;;6.28;4.38;;;9.00;82.70;;;;;;5068044;28;20127;-81
2022/02/04 07:32:02;;;;;;;6.35;4.28;;;9.00;82.70;;;;;;5066165;28;20053;-78
2022/02/04 07:35:00;;;;;;;7.10;5.13;;;9.10;82.70;;;;;;5075214;28;20495;-80
2022/02/04 07:43:02;;;;;;;4.90;3.85;;;9.10;82.80;;;;;;5069999;28;20534;-80
2022/02/04 07:45:29;;;;;;;5.57;4.15;;;9.10;82.90;;;;;;5070825;28;20028;-85
2022/02/04 07:47:54;;;;;;;5.63;4.40;;;9.10;82.90;;;;;;5061724;28;20044;-77
2022/02/04 07:50:21;;;;;;;5.32;4.20;;;9.10;82.90;;;;;;5063380;28;20075;-82
2022/02/04 07:52:54;;;;;;;4.80;4.18;;;9.10;82.90;;;;;;5057026;28;20025;-77
2022/02/04 07:55:21;;;;;;;5.05;4.32;;;9.10;82.90;;;;;;5064520;28;20026;-77
2022/02/04 07:57:48;;;;;;;4.10;3.53;;;9.10;83.00;;;;;;5060934;28;20645;-79
2022/02/04 08:00:17;;;;;;;6.00;4.63;;;9.20;83.00;;;;;;5058747;28;20067;-79
2022/02/04 08:02:47;;;;;;;5.50;4.10;;;9.10;83.00;;;;;;5058385;28;20034;-78
2022/02/04 08:05:15;;;;;;;4.63;3.45;;;9.10;83.10;;;;;;5059413;28;20040;-77
2022/02/04 08:07:54;;;;;;;5.20;4.22;;;9.10;83.20;;;;;;5067251;28;20040;-78
2022/02/04 08:15:52;;;;;;;6.32;4.60;;;9.00;83.40;;;;;;5061663;28;20120;-77
2022/02/04 08:26:22;;;;;;;5.57;4.32;;;9.00;83.70;;;;;;5065466;28;20039;-78
2022/02/04 08:34:30;;;;;;;6.70;5.00;;;9.10;83.90;;;;;;5063689;28;20562;-77
2022/02/04 08:37:40;;;;;;;5.97;4.80;;;9.10;84.00;;;;;;5064553;28;20039;-79
2022/02/04 08:53:48;;;;;;;6.35;5.40;;;9.00;84.40;;;;;;5066698;28;20020;-78
2022/02/04 08:56:05;;;;;;;6.97;5.45;;;9.00;84.50;;;;;;5053736;28;20144;-78
2022/02/04 08:58:36;;;;;;;8.27;6.25;;;9.00;85.10;;;;;;5063828;28;20107;-78
2022/02/04 09:01:10;;;;;;;7.30;5.90;;;9.00;84.60;;;;;;5060099;28;20109;-76
2022/02/04 09:06:19;;;;;;;6.97;6.03;;;9.00;84.70;;;;;;5066121;28;20036;-77
2022/02/04 09:08:49;;;;;;;8.15;6.70;;;9.00;84.70;;;;;;5064847;28;20032;-75
2022/02/04 09:11:28;;;;;;;7.43;5.88;;;9.00;84.70;;;;;;5063350;28;20044;-76
2022/02/04 09:17:00;;;;;;;6.78;5.82;;;9.10;84.60;;;;;;5063637;28;20039;-75
2022/02/04 09:19:47;;;;;;;9.13;7.03;;;9.10;84.50;;;;;;5063240;28;20028;-75
2022/02/04 09:22:56;;;;;;;8.18;6.78;;;9.10;84.60;;;;;;5064161;28;20040;-75
2022/02/04 09:25:03;;;;;;;6.78;5.25;;;9.10;84.60;;;;;;5061191;28;20032;-76
2022/02/04 09:27:28;;;;;;;6.47;5.72;;;9.10;85.20;;;;;;5060895;28;20031;-78
2022/02/04 09:29:54;;;;;;;6.45;5.22;;;9.20;84.60;;;;;;5066034;28;20685;-78
2022/02/04 09:32:19;;;;;;;7.72;5.60;;;9.20;84.60;;;;;;5058781;28;20064;-78
2022/02/04 09:34:45;;;;;;;8.07;7.10;;;9.20;84.60;;;;;;5057998;28;20119;-79
2022/02/04 09:37:11;;;;;;;8.05;6.43;;;9.20;84.70;;;;;;5059939;28;20028;-79
2022/02/04 09:39:36;;;;;;;7.78;6.30;;;9.20;84.80;;;;;;5059425;28;20029;-78
2022/02/04 09:42:02;;;;;;;6.50;5.60;;;9.20;85.00;;;;;;5067689;28;20016;-79
2022/02/04 09:44:28;;;;;;;6.38;5.25;;;9.20;85.20;;;;;;5067398;28;20581;-78
2022/02/04 09:46:55;;;;;;;6.43;5.65;;;9.20;85.50;;;;;;5059536;28;20016;-79
2022/02/04 09:49:27;;;;;;;6.70;5.45;;;9.20;85.70;;;;;;5067311;28;20037;-78
2022/02/04 10:06:48;;;;;;;7.05;6.07;;;9.10;86.60;;;;;;5075902;28;20059;-77
2022/02/04 10:19:53;;;;;;;8.00;6.80;;;9.10;86.70;;;;;;5068469;28;20029;-77
2022/02/04 10:22:26;;;;;;;7.00;6.03;;;9.20;86.60;;;;;;5060690;28;20027;-77
2022/02/04 10:25:01;;;;;;;;;;;9.20;86.60;;;;;;5067861;28;20036;-77
2022/02/04 10:27:32;;;;;;;6.70;5.60;;;9.20;86.40;;;;;;5059714;28;19904;-79
2022/02/04 10:30:04;;;;;;;6.88;5.60;;;9.20;86.50;;;;;;5067408;28;20056;-79
2022/02/04 10:32:33;;;;;;;6.15;5.55;;;9.30;86.30;;;;;;5063113;28;20039;-78
2022/02/04 10:35:01;;;;;;;5.38;4.88;;;9.30;86.20;;;;;;5067392;28;20040;-78
2022/02/04 10:37:30;;;;;;;5.63;4.65;;;9.40;86.20;;;;;;5066017;28;20031;-75
2022/02/04 10:51:10;;;;;;;4.10;3.55;;;9.60;85.50;;;;;;5065120;28;20098;-77
2022/02/04 11:04:12;;;;;;;4.20;3.80;;;9.80;85.00;;;;;;5064478;28;20028;-78
2022/02/04 11:08:03;;;;;;;4.88;3.35;;;9.80;84.70;;;;;;5062548;28;20032;-77
2022/02/04 11:32:16;;;;;;;4.63;4.18;;;9.70;83.70;;;;;;5067843;28;20036;-77
2022/02/04 11:57:01;;;;;;;3.95;3.50;;;9.90;82.60;;;;;;5069485;28;20441;-79
2022/02/04 11:59:40;;;;;;;5.57;4.65;;;9.90;82.60;;;;;;5052520;28;20382;-79
2022/02/04 12:02:24;;;;;;;4.32;3.60;;;10.00;82.80;;;;;;5060726;28;20032;-78
2022/02/04 12:05:16;;;;;;;3.90;3.45;;;10.00;82.10;;;;;;5065734;28;20056;-77
2022/02/04 12:08:15;;;;;;;4.82;4.25;;;10.00;82.00;;;;;;5061992;28;20048;-78
2022/02/04 12:10:52;;;;;;;3.60;3.30;;;10.00;81.70;;;;;;5060947;28;20040;-77
2022/02/04 12:13:20;;;;;;;3.47;3.00;;;10.00;81.70;;;;;;5065215;28;20016;-76
2022/02/04 12:16:10;;;;;;;3.65;2.95;;;10.10;81.50;;;;;;5064845;28;20031;-76
2022/02/04 12:18:37;;;;;;;3.95;3.55;;;10.00;81.50;;;;;;5066650;28;20104;-76
2022/02/04 12:21:04;;;;;;;7.20;3.80;;;10.00;81.00;;;;;;5069429;28;20024;-76
2022/02/04 12:23:32;;;;;;;3.80;3.38;;;10.00;80.80;;;;;;5067627;28;20020;-76
2022/02/04 12:26:09;;;;;;;4.63;2.92;;;10.00;80.70;;;;;;5066904;28;20426;-77
2022/02/04 12:28:41;;;;;;;3.78;3.38;;;10.00;80.80;;;;;;5061640;28;20032;-76
2022/02/04 12:31:08;;;;;;;3.70;3.17;;;10.10;80.80;;;;;;5055344;28;20029;-77
2022/02/04 12:33:49;;;;;;;4.93;3.28;;;10.00;80.50;;;;;;5060793;28;20020;-78
2022/02/04 12:36:18;;;;;;;3.85;3.33;;;10.00;80.60;;;;;;5063274;28;20039;-78
2022/02/04 12:38:46;;;;;;;3.75;2.60;;;10.00;80.40;;;;;;5070805;28;20102;-77
2022/02/04 12:41:30;;;;;;;4.97;3.25;;;10.00;80.40;;;;;;5061440;28;20490;-78
2022/02/04 12:43:58;;;;;;;3.92;3.17;;;10.10;80.30;;;;;;5060182;28;20013;-78
2022/02/04 12:46:26;;;;;;;3.13;2.50;;;10.00;80.20;;;;;;5066039;28;20556;-76
2022/02/04 12:49:06;;;;;;;3.83;3.30;;;10.10;80.40;;;;;;5065486;28;20013;-78
2022/02/04 12:51:40;;;;;;;3.58;3.28;;;10.00;80.00;;;;;;5063827;28;20067;-78
2022/02/04 12:54:05;;;;;;;6.63;4.10;;;10.00;80.10;;;;;;5063597;28;20028;-78
2022/02/04 12:56:44;;;;;;;5.68;3.60;;;10.00;80.00;;;;;;5065620;28;20028;-77
2022/02/04 13:02:05;;;;;;;6.25;4.18;;;9.90;80.10;;;;;;5062705;28;20032;-78
2022/02/04 13:10:04;;;;;;;4.60;4.00;;;9.90;79.90;;;;;;5065530;28;20043;-78
2022/02/04 13:12:30;;;;;;;4.30;3.17;;;9.90;79.90;;;;;;5060716;28;20463;-79
2022/02/04 13:14:56;;;;;;;4.05;3.33;;;9.90;79.80;;;;;;5054995;28;20025;-77
2022/02/04 13:17:36;;;;;;;3.60;3.25;;;9.80;79.60;;;;;;5062809;28;20081;-78
2022/02/04 13:20:02;;;;;;;4.43;3.75;;;9.80;79.50;;;;;;5062402;28;20624;-77
2022/02/04 13:22:28;;;;;;;4.68;3.40;;;9.90;79.40;;;;;;5065996;28;20176;-77
2022/02/04 13:25:10;;;;;;;4.07;2.60;;;9.80;79.30;;;;;;5065321;28;20046;-78
2022/02/04 13:27:36;;;;;;;3.78;3.17;;;9.80;79.40;;;;;;5066028;28;20086;-78
2022/02/04 13:30:58;;;;;;;3.67;3.28;;;9.90;79.50;;;;;;5063202;28;20028;-75
2022/02/04 13:33:24;;;;;;;3.30;3.00;;;9.90;79.50;;;;;;5063035;28;20044;-75
2022/02/04 13:36:12;;;;;;;3.25;2.88;;;9.80;79.60;;;;;;5063028;28;20024;-75
2022/02/04 13:44:45;;;;;;;3.75;2.88;;;9.80;80.10;;;;;;5064664;28;20029;-77
2022/02/04 13:47:47;;;;;;;5.60;3.08;;;9.70;80.30;;;;;;5057331;28;20028;-78
2022/02/04 13:53:17;;;;;;;4.05;3.38;;;9.70;81.30;;;;;;5061451;28;20126;-78
2022/02/04 13:58:49;;;;;;;5.82;3.22;;;9.60;81.20;;;;;;5063357;28;20029;-77
2022/02/04 14:01:28;;;;;;;3.95;3.30;;;9.50;81.40;;;;;;5060699;28;20241;-78
2022/02/04 14:04:00;;;;;;;3.88;3.25;;;9.50;81.70;;;;;;5059321;28;20417;-77
2022/02/04 14:06:28;;;;;;;5.93;4.30;;;9.40;82.00;;;;;;5064537;28;20024;-78
2022/02/04 14:08:58;;;;;;;4.65;3.35;;;9.40;82.30;;;;;;5066574;28;20262;-77
2022/02/04 14:11:36;;;;;;;8.25;4.20;;;9.30;82.60;;;;;;5065887;28;20044;-78
2022/02/04 14:14:11;;;;;;;5.57;4.30;;;9.30;82.80;;;;;;5065139;28;20029;-78
2022/02/04 14:16:38;;;;;;;8.27;5.15;;;9.30;83.00;;;;;;5064496;28;20031;-79
2022/02/04 14:19:05;;;;;;;6.38;4.35;;;9.20;83.30;;;;;;5060839;28;20020;-78
2022/02/04 14:21:31;;;;;;;5.57;4.07;;;9.20;83.60;;;;;;5065267;28;20372;-77
2022/02/04 14:24:01;;;;;;;7.43;4.82;;;9.10;83.80;;;;;;5066314;28;20017;-77
2022/02/04 14:26:30;;;;;;;6.28;4.93;;;9.10;84.10;;;;;;5064072;28;20051;-77
2022/02/04 14:29:03;;;;;;;7.55;5.00;;;9.00;84.30;;;;;;5064706;28;20443;-76
2022/02/04 14:31:39;;;;;;;7.05;4.60;;;9.00;84.50;;;;;;5065231;28;20033;-76
2022/02/04 14:51:03;;;;;;;4.35;3.50;;;8.80;86.10;;;;;;5065124;28;20094;-76
2022/02/04 14:53:26;;;;;;;2.83;2.42;;;8.80;86.10;;;;;;5064935;28;20445;-76
2022/02/04 15:01:16;;;;;;;1.70;1.02;;;8.20;84.80;;;;;;5065799;28;20024;-76
2022/02/04 15:03:54;;;;;;;0.85;0.80;;;8.10;85.00;;;;;;5065321;28;20031;-76
2022/02/04 15:06:30;;;;;;;0.70;0.70;;;7.90;85.00;;;;;;5060224;28;20087;-76
2022/02/04 15:08:56;;;;;;;0.70;0.60;;;7.80;85.10;;;;;;5056725;28;20120;-77
2022/02/04 15:11:28;;;;;;;0.57;0.57;;;7.60;84.90;;;;;;5063352;28;20629;-76
2022/02/04 15:13:54;;;;;;;0.50;0.50;;;7.40;84.60;;;;;;5061045;28;20025;-77
2022/02/04 15:16:20;;;;;;;1.20;0.60;;;7.20;84.70;;;;;;5060396;28;20055;-77
2022/02/04 15:18:45;;;;;;;0.60;0.60;;;7.10;84.90;;;;;;5066020;28;20021;-78
2022/02/04 15:21:16;;;;;;;0.77;0.77;;;6.90;84.60;;;;;;5066979;28;20024;-77
2022/02/04 15:23:46;;;;;;;0.75;0.60;;;6.70;84.50;;;;;;5061934;28;20023;-77
2022/02/04 15:26:13;;;;;;;0.60;0.60;;;6.60;84.70;;;;;;5071768;28;20024;-80
2022/02/04 15:28:43;;;;;;;0.50;0.50;;;6.50;84.80;;;;;;5075805;28;20044;-77
2022/02/04 15:31:18;;;;;;;0.70;0.70;;;6.40;84.70;;;;;;5062006;28;20036;-77
2022/02/04 15:33:46;;;;;;;1.15;0.60;;;6.30;84.70;;;;;;5069029;28;20028;-77
2022/02/04 15:36:12;;;;;;;0.60;0.60;;;6.20;84.70;;;;;;5071467;28;20020;-77
2022/02/04 15:38:37;;;;;;;0.63;0.63;;;6.10;84.80;;;;;;5071070;28;20027;-78
2022/02/04 15:41:04;;;;;;;0.60;0.60;;;6.10;84.80;;;;;;5065485;28;20025;-77
2022/02/04 15:43:30;;;;;;;0.60;0.60;;;6.10;84.90;;;;;;5066054;28;20463;-77
2022/02/04 15:46:35;;;;;;;0.80;0.70;;;6.10;85.00;;;;;;5067324;28;20650;-76
2022/02/04 15:49:13;;;;;;;0.95;0.95;;;6.00;85.00;;;;;;5071062;28;20502;-77
2022/02/04 15:56:53;;;;;;;1.23;0.90;;;6.00;85.10;;;;;;5062939;28;20554;-77
2022/02/04 16:02:17;;;;;;;0.73;0.73;;;5.90;85.10;;;;;;5064811;28;20497;-77
2022/02/04 16:04:45;;;;;;;0.75;0.70;;;6.00;85.20;;;;;;5060215;28;20063;-78
2022/02/04 16:07:13;;;;;;;2.00;1.30;;;6.10;85.20;;;;;;5068323;28;20066;-77
2022/02/04 16:09:38;;;;;;;1.42;1.33;;;6.10;85.20;;;;;;5065842;28;20103;-76
2022/02/04 16:12:09;;;;;;;1.50;1.40;;;6.10;85.10;;;;;;5066178;28;20040;-78
2022/02/04 16:14:43;;;;;;;2.55;1.88;;;6.10;85.20;;;;;;5064462;28;20398;-78
2022/02/04 16:17:24;;;;;;;2.00;1.60;;;6.00;85.20;;;;;;5064411;28;20028;-78
2022/02/04 16:20:08;;;;;;;1.10;1.00;;;6.00;85.20;;;;;;5066109;28;20025;-76
2022/02/04 16:22:56;;;;;;;2.10;1.90;;;6.00;85.30;;;;;;5070009;28;20027;-78
2022/02/04 16:25:37;;;;;;;1.92;1.48;;;6.00;85.50;;;;;;5066545;28;20471;-78
2022/02/04 16:30:47;;;;;;;1.27;1.02;;;6.00;85.30;;;;;;5068366;28;20094;-78
2022/02/04 16:33:13;;;;;;;1.10;1.00;;;6.10;85.50;;;;;;5065201;28;20051;-78
2022/02/04 16:35:39;;;;;;;0.93;0.93;;;6.10;85.40;;;;;;5064388;28;20024;-78
2022/02/04 16:38:05;;;;;;;1.52;1.00;;;6.10;85.30;;;;;;5070281;28;20090;-78
2022/02/04 16:40:33;;;;;;;0.90;0.90;;;6.10;85.20;;;;;;5069229;28;20032;-77
2022/02/04 16:42:59;;;;;;;1.25;0.90;;;6.00;85.10;;;;;;5068701;28;20020;-78
2022/02/04 16:45:25;;;;;;;1.08;0.82;;;6.00;85.10;;;;;;5069736;28;20028;-76
2022/02/04 16:47:52;;;;;;;1.10;1.00;;;5.90;85.10;;;;;;5068224;28;20020;-76
2022/02/04 16:50:21;;;;;;;1.08;0.98;;;5.90;85.10;;;;;;5068459;28;20534;-78
2022/02/04 16:52:52;;;;;;;0.90;0.90;;;5.90;85.20;;;;;;5060526;28;20112;-76
2022/02/04 16:55:19;;;;;;;0.80;0.80;;;5.90;85.20;;;;;;5068737;28;20035;-75
2022/02/04 16:57:47;;;;;;;1.17;0.88;;;5.90;85.20;;;;;;5067708;28;20494;-75
2022/02/04 17:00:23;;;;;;;1.42;0.90;;;5.90;85.20;;;;;;5066837;28;20017;-76
2022/02/04 17:02:51;;;;;;;1.48;0.80;;;5.90;85.10;;;;;;5067455;28;20055;-76
2022/02/04 17:05:18;;;;;;;0.77;0.77;;;5.90;85.10;;;;;;5061430;28;20038;-76
2022/02/04 17:07:52;;;;;;;1.73;1.08;;;5.90;85.10;;;;;;5066351;28;20140;-76
2022/02/04 17:10:26;;;;;;;1.88;1.20;;;5.90;85.00;;;;;;5062777;28;20059;-76
2022/02/04 17:12:58;;;;;;;1.13;1.00;;;5.90;85.00;;;;;;5067643;28;20052;-77
2022/02/04 17:15:24;;;;;;;1.10;1.00;;;5.90;85.00;;;;;;5063450;28;20278;-77
2022/02/04 17:17:50;;;;;;;3.05;0.98;;;5.90;85.00;;;;;;5064972;28;20074;-77
2022/02/04 17:20:16;;;;;;;2.20;0.95;;;5.80;84.80;;;;;;5066661;28;20475;-77
2022/02/04 17:22:42;;;;;;;2.03;1.10;;;5.80;84.90;;;;;;5058185;28;20529;-76
2022/02/04 17:25:10;;;;;;;1.00;0.90;;;5.80;84.90;;;;;;5061646;28;20032;-77
2022/02/04 17:27:37;;;;;;;1.27;1.00;;;5.80;84.90;;;;;;5060770;28;20096;-77
2022/02/04 17:30:06;;;;;;;1.45;1.08;;;5.80;84.90;;;;;;5066983;28;20376;-76
2022/02/04 17:32:32;;;;;;;2.10;1.40;;;5.90;85.00;;;;;;5069401;28;20025;-77
2022/02/04 17:34:57;;;;;;;2.40;1.23;;;5.90;84.80;;;;;;5061686;28;20032;-76
2022/02/04 17:37:24;;;;;;;2.30;1.17;;;5.80;84.80;;;;;;5061791;28;20025;-76
2022/02/04 17:39:52;;;;;;;3.35;1.60;;;5.80;84.80;;;;;;5067290;28;20025;-77
2022/02/04 17:42:22;;;;;;;2.65;1.52;;;5.80;84.80;;;;;;5062787;28;20487;-77
2022/02/04 17:44:49;;;;;;;2.30;1.60;;;5.80;84.70;;;;;;5060975;28;20021;-76
2022/02/04 17:47:16;;;;;;;3.05;1.40;;;5.70;84.50;;;;;;5066537;28;20419;-77
2022/02/04 17:52:42;;;;;;;2.88;1.70;;;5.80;84.60;;;;;;5072161;28;20047;-77
2022/02/04 17:55:16;;;;;;;2.97;1.80;;;5.70;84.50;;;;;;5057479;28;20104;-76
2022/02/04 17:57:47;;;;;;;1.48;1.20;;;5.70;84.50;;;;;;5067046;28;20020;-77
2022/02/04 18:02:58;;;;;;;5.70;3.75;;;5.70;84.60;;;;;;5067435;28;20048;-77
2022/02/04 18:08:05;;;;;;;4.90;3.45;;;5.60;84.60;;;;;;5063026;28;20652;-77
2022/02/04 18:10:30;;;;;;;5.65;4.10;;;5.60;84.60;;;;;;5059606;28;20039;-77
2022/02/04 18:12:56;;;;;;;4.18;3.67;;;5.60;84.70;;;;;;5059305;28;20601;-76
2022/02/04 18:15:22;;;;;;;3.85;1.95;;;5.60;84.70;;;;;;5063947;28;20032;-77
2022/02/04 18:17:48;;;;;;;4.55;2.15;;;5.60;84.60;;;;;;5061846;28;20025;-77
2022/02/04 18:20:14;;;;;;;3.35;2.33;;;5.60;84.70;;;;;;5057735;28;20025;-76
2022/02/04 18:22:40;;;;;;;6.30;3.28;;;5.60;84.70;;;;;;5061990;28;20025;-76
2022/02/04 18:25:07;;;;;;;9.10;4.57;;;5.60;84.60;;;;;;5060131;28;20104;-75
2022/02/04 18:27:33;;;;;;;16.40;8.82;;;5.60;84.60;;;;;;5062258;28;20098;-75
2022/02/04 18:29:59;;;;;;;18.50;10.35;;;5.60;84.60;;;;;;5060988;28;20074;-77
2022/02/04 18:32:26;;;;;;;14.50;7.18;;;5.60;84.60;;;;;;5062195;28;20052;-77
2022/02/04 18:34:53;;;;;;;13.13;6.65;;;5.60;84.60;;;;;;5064961;28;20508;-77
2022/02/04 18:37:20;;;;;;;11.85;4.78;;;5.60;84.50;;;;;;5063461;28;20020;-79
2022/02/04 18:45:01;;;;;;;11.35;8.20;;;5.60;84.50;;;;;;5059606;28;20032;-77
2022/02/04 18:47:35;;;;;;;5.60;3.67;;;5.60;84.50;;;;;;5064118;28;20032;-77
2022/02/04 18:55:39;;;;;;;6.15;2.53;;;5.60;84.50;;;;;;5068927;28;20418;-77
2022/02/04 18:57:52;;;;;;;3.67;2.08;;;5.60;84.30;;;;;;5059805;28;20040;-77
2022/02/04 19:00:19;;;;;;;7.28;2.58;;;5.60;84.40;;;;;;5072686;28;20023;-77
2022/02/04 19:02:48;;;;;;;6.32;2.40;;;5.60;84.40;;;;;;5067546;28;20029;-77
2022/02/04 19:05:25;;;;;;;4.47;2.03;;;5.70;84.30;;;;;;5066986;28;20430;-78
2022/02/04 19:08:03;;;;;;;4.15;1.95;;;5.60;84.10;;;;;;5071605;28;20036;-77
2022/02/04 19:10:29;;;;;;;7.63;2.00;;;5.60;84.10;;;;;;5068699;28;20036;-76
2022/02/04 19:13:00;;;;;;;6.13;1.85;;;5.70;84.30;;;;;;5063305;28;20095;-77
2022/02/04 19:17:57;;;;;;;88.22;58.58;;;5.70;84.10;;;;;;5071861;28;20145;-77
2022/02/04 19:23:01;;;;;;;11.57;5.93;;;5.80;84.10;;;;;;5066969;28;20057;-77
2022/02/04 19:25:32;;;;;;;10.23;3.80;;;5.80;84.00;;;;;;5064575;28;20024;-76
2022/02/04 19:27:58;;;;;;;6.55;2.95;;;5.80;84.00;;;;;;5068249;28;20027;-77
2022/02/04 19:30:25;;;;;;;4.20;2.47;;;5.80;83.90;;;;;;5072309;28;20068;-78